Time;durP1;ratioP1;P1;durP2;ratioP2;P2;SDS_P1;SDS_P2;PMS_P1;PMS_P2;Temp;Humidity;BMP_temperature;BMP_pressure;BME280_temperature;BME280_humidity;BME280_pressure;Samples;Min_cycle;Max_cycle;Signal;HPM_P1;HPM_P2
2024/01/01 00:00:15;;;;;;;14.23;3.37;;;6.40;99.90;;;;;;5085697;28;20212;-59
2024/01/01 00:02:43;;;;;;;19.77;3.33;;;6.40;99.90;;;;;;5085258;28;20306;-58
2024/01/01 00:05:11;;;;;;;17.93;3.03;;;6.40;99.90;;;;;;5084729;28;20200;-59
2024/01/01 00:07:40;;;;;;;21.50;3.73;;;6.40;99.90;;;;;;5089355;28;20290;-59
2024/01/01 00:10:09;;;;;;;17.77;3.73;;;6.40;99.90;;;;;;5082075;28;20224;-59
2024/01/01 00:12:38;;;;;;;30.83;4.70;;;6.50;99.90;;;;;;5083949;28;20223;-58
2024/01/01 00:15:07;;;;;;;22.80;4.03;;;6.50;99.90;;;;;;5084850;28;20225;-59
2024/01/01 00:17:36;;;;;;;24.10;4.37;;;6.50;99.90;;;;;;5083967;28;20211;-59
2024/01/01 00:20:05;;;;;;;31.97;4.13;;;6.50;99.90;;;;;;5083371;28;20660;-59
2024/01/01 00:22:33;;;;;;;24.30;4.20;;;6.60;99.90;;;;;;5087464;28;20644;-58
2024/01/01 00:25:02;;;;;;;22.80;4.03;;;6.60;99.90;;;;;;5082427;28;20219;-59
2024/01/01 00:27:34;;;;;;;25.80;3.80;;;6.60;99.90;;;;;;5086580;28;20230;-59
2024/01/01 00:30:04;;;;;;;27.60;4.10;;;6.60;99.90;;;;;;5081704;28;20234;-59
2024/01/01 00:32:32;;;;;;;28.97;4.73;;;6.60;99.90;;;;;;5082523;27;20604;-59
2024/01/01 00:35:04;;;;;;;35.90;4.77;;;6.60;99.90;;;;;;5085154;28;20287;-58
2024/01/01 00:37:32;;;;;;;17.10;4.77;;;6.60;99.90;;;;;;5085901;28;20194;-60
2024/01/01 00:40:02;;;;;;;37.20;5.20;;;6.60;99.90;;;;;;5084643;28;20218;-59
2024/01/01 00:42:34;;;;;;;16.17;4.30;;;6.60;99.90;;;;;;5084018;28;20231;-60
2024/01/01 00:45:04;;;;;;;23.20;4.33;;;6.60;99.90;;;;;;5078741;28;20314;-59
2024/01/01 00:47:32;;;;;;;19.60;4.27;;;6.60;99.90;;;;;;5083569;28;20243;-59
2024/01/01 00:50:00;;;;;;;18.33;3.90;;;6.60;99.90;;;;;;5083036;28;20248;-57
2024/01/01 00:52:29;;;;;;;24.07;4.70;;;6.60;99.90;;;;;;5082331;28;21818;-59
2024/01/01 00:54:57;;;;;;;20.53;4.33;;;6.70;99.90;;;;;;5083243;27;20219;-59
2024/01/01 00:57:25;;;;;;;26.67;4.67;;;6.70;99.90;;;;;;5083652;28;21184;-59
2024/01/01 00:59:53;;;;;;;21.77;4.90;;;6.70;99.90;;;;;;5088114;28;20211;-60
2024/01/01 01:02:23;;;;;;;30.93;5.17;;;6.60;99.90;;;;;;5084564;27;20241;-59
2024/01/01 01:04:52;;;;;;;26.63;4.87;;;6.60;99.90;;;;;;5085656;28;20220;-59
2024/01/01 01:07:33;;;;;;;29.90;4.63;;;6.60;99.90;;;;;;5083189;28;20239;-59
2024/01/01 01:10:01;;;;;;;24.53;4.70;;;6.60;99.90;;;;;;5084628;28;20220;-59
2024/01/01 01:12:29;;;;;;;23.10;4.03;;;6.60;99.90;;;;;;5083626;28;20219;-59
2024/01/01 01:14:57;;;;;;;21.20;3.47;;;6.70;99.90;;;;;;5085319;28;20303;-60
2024/01/01 01:17:27;;;;;;;28.17;5.07;;;6.70;99.90;;;;;;5085602;28;20706;-59
2024/01/01 01:19:55;;;;;;;27.03;4.60;;;6.60;99.90;;;;;;5088480;28;20626;-59
2024/01/01 01:22:24;;;;;;;26.23;4.03;;;6.60;99.90;;;;;;5082467;28;20216;-59
2024/01/01 01:24:52;;;;;;;20.57;3.53;;;6.60;99.90;;;;;;5080757;28;20705;-59
2024/01/01 01:27:20;;;;;;;28.63;3.70;;;6.60;99.90;;;;;;5085147;28;20721;-59
2024/01/01 01:29:49;;;;;;;25.30;3.90;;;6.60;99.90;;;;;;5082721;28;20265;-59
2024/01/01 01:32:17;;;;;;;29.47;3.97;;;6.60;99.90;;;;;;5082659;28;20215;-59
2024/01/01 01:34:47;;;;;;;24.40;4.00;;;6.60;99.90;;;;;;5085036;28;20198;-59
2024/01/01 01:37:15;;;;;;;19.83;4.13;;;6.60;99.90;;;;;;5083210;28;20243;-59
2024/01/01 01:39:44;;;;;;;30.03;4.37;;;6.60;99.90;;;;;;5085287;28;20740;-60
2024/01/01 01:42:12;;;;;;;28.77;4.10;;;6.60;99.90;;;;;;5082482;28;20219;-59
2024/01/01 01:44:40;;;;;;;31.27;4.40;;;6.60;99.90;;;;;;5075771;28;20223;-59
2024/01/01 01:47:09;;;;;;;17.03;4.23;;;6.60;99.90;;;;;;5084511;28;20207;-58
2024/01/01 01:49:37;;;;;;;34.63;4.60;;;6.60;99.90;;;;;;5083570;28;20191;-59
2024/01/01 01:52:09;;;;;;;26.13;3.87;;;6.60;99.90;;;;;;5082334;28;20218;-59
2024/01/01 01:54:38;;;;;;;23.40;4.20;;;6.60;99.90;;;;;;5083152;28;20724;-59
2024/01/01 01:57:07;;;;;;;25.60;4.23;;;6.60;99.90;;;;;;5084299;28;20312;-59
2024/01/01 01:59:36;;;;;;;15.77;3.67;;;6.50;99.90;;;;;;5085119;28;20219;-59
2024/01/01 02:02:04;;;;;;;24.27;3.40;;;6.50;99.90;;;;;;5082308;28;20183;-58
2024/01/01 02:04:34;;;;;;;23.10;3.73;;;6.50;99.90;;;;;;5083217;28;20234;-59
2024/01/01 02:07:02;;;;;;;22.70;3.80;;;6.50;99.90;;;;;;5082013;28;20243;-60
2024/01/01 02:09:32;;;;;;;23.73;4.07;;;6.50;99.90;;;;;;5086419;28;20224;-59
2024/01/01 02:12:01;;;;;;;16.13;4.20;;;6.50;99.90;;;;;;5086300;28;20277;-59
2024/01/01 02:14:30;;;;;;;18.17;4.00;;;6.50;99.90;;;;;;5081443;28;20235;-59
2024/01/01 02:16:58;;;;;;;30.53;3.80;;;6.50;99.90;;;;;;5080349;28;20658;-59
2024/01/01 02:19:28;;;;;;;26.93;3.53;;;6.50;99.90;;;;;;5083150;28;20320;-59
2024/01/01 02:21:57;;;;;;;22.90;4.17;;;6.50;99.90;;;;;;5082734;28;20216;-62
2024/01/01 02:24:27;;;;;;;29.93;4.10;;;6.50;99.90;;;;;;5084542;28;20623;-59
2024/01/01 02:26:55;;;;;;;19.77;3.67;;;6.50;99.90;;;;;;5084723;28;20227;-59
2024/01/01 02:29:23;;;;;;;28.73;4.00;;;6.50;99.90;;;;;;5085492;28;20223;-59
2024/01/01 02:31:52;;;;;;;15.57;3.70;;;6.50;99.90;;;;;;5083757;28;20211;-59
2024/01/01 02:34:22;;;;;;;25.53;3.40;;;6.50;99.90;;;;;;5083277;28;20268;-59
2024/01/01 02:36:50;;;;;;;19.70;3.27;;;6.50;99.90;;;;;;5082749;28;20238;-58
2024/01/01 02:39:18;;;;;;;17.83;3.20;;;6.60;99.90;;;;;;5084490;28;20222;-58
2024/01/01 02:41:48;;;;;;;29.17;3.90;;;6.60;99.90;;;;;;5083376;28;20215;-59
2024/01/01 02:44:17;;;;;;;23.23;3.33;;;6.60;99.90;;;;;;5080907;28;20277;-59
2024/01/01 02:46:46;;;;;;;20.63;3.83;;;6.60;99.90;;;;;;5080561;28;20206;-59
2024/01/01 02:49:15;;;;;;;15.27;3.17;;;6.50;99.90;;;;;;5084268;28;20207;-59
2024/01/01 02:51:44;;;;;;;17.13;2.90;;;6.50;99.90;;;;;;5087583;28;20207;-59
2024/01/01 02:54:12;;;;;;;18.10;3.43;;;6.50;99.90;;;;;;5087112;28;20309;-59
2024/01/01 02:56:40;;;;;;;10.97;2.50;;;6.50;99.90;;;;;;5089654;28;20215;-59
2024/01/01 02:59:11;;;;;;;18.40;3.10;;;6.50;99.90;;;;;;5090011;28;20230;-59
2024/01/01 03:01:40;;;;;;;13.33;3.20;;;6.40;99.90;;;;;;5089417;28;20191;-59
2024/01/01 03:04:08;;;;;;;20.53;4.00;;;6.40;99.90;;;;;;5090336;28;20227;-59
2024/01/01 03:06:36;;;;;;;27.50;4.73;;;6.40;99.90;;;;;;5085532;28;20220;-59
2024/01/01 03:09:04;;;;;;;26.43;3.70;;;6.40;99.90;;;;;;5086171;28;20225;-59
2024/01/01 03:11:33;;;;;;;21.53;3.37;;;6.40;99.90;;;;;;5089568;28;20866;-59
2024/01/01 03:14:01;;;;;;;14.37;3.40;;;6.40;99.90;;;;;;5091489;27;20191;-58
2024/01/01 03:16:31;;;;;;;17.47;3.60;;;6.40;99.90;;;;;;5089643;28;20242;-59
2024/01/01 03:18:59;;;;;;;14.13;3.13;;;6.40;99.90;;;;;;5089257;28;20326;-59
2024/01/01 03:21:32;;;;;;;24.60;3.17;;;6.40;99.90;;;;;;5090270;28;20227;-59
2024/01/01 03:24:00;;;;;;;22.97;4.40;;;6.40;99.90;;;;;;5087105;28;20218;-59
2024/01/01 03:26:28;;;;;;;17.43;4.07;;;6.40;99.90;;;;;;5087612;28;20230;-59
2024/01/01 03:28:56;;;;;;;13.27;3.03;;;6.40;99.90;;;;;;5086994;28;20191;-59
2024/01/01 03:31:25;;;;;;;21.83;3.87;;;6.40;99.90;;;;;;5087163;28;20315;-59
2024/01/01 03:33:55;;;;;;;21.27;3.53;;;6.40;99.90;;;;;;5085369;27;20215;-59
2024/01/01 03:36:23;;;;;;;18.07;3.43;;;6.40;99.90;;;;;;5088003;28;20215;-59
2024/01/01 03:38:52;;;;;;;19.50;3.10;;;6.40;99.90;;;;;;5082926;28;20239;-60
2024/01/01 03:41:24;;;;;;;21.07;3.53;;;6.40;99.90;;;;;;5083925;28;20241;-59
2024/01/01 03:43:52;;;;;;;21.70;3.30;;;6.40;99.90;;;;;;5085462;28;21584;-60
2024/01/01 03:46:20;;;;;;;21.00;4.00;;;6.40;99.90;;;;;;5085760;28;20250;-59
2024/01/01 03:48:48;;;;;;;22.40;3.43;;;6.40;99.90;;;;;;5087159;28;20589;-60
2024/01/01 03:51:18;;;;;;;13.33;3.03;;;6.30;99.90;;;;;;5086478;28;20314;-59
2024/01/01 03:53:46;;;;;;;23.70;3.43;;;6.30;99.90;;;;;;5086390;28;20223;-59
2024/01/01 03:56:15;;;;;;;25.50;3.93;;;6.30;99.90;;;;;;5083412;28;20191;-59
2024/01/01 03:58:43;;;;;;;20.30;3.40;;;6.30;99.90;;;;;;5087868;28;20233;-60
2024/01/01 04:01:13;;;;;;;28.23;3.80;;;6.30;99.90;;;;;;5086978;28;20219;-59
2024/01/01 04:03:42;;;;;;;20.60;3.43;;;6.30;99.90;;;;;;5086201;28;20235;-59
2024/01/01 04:06:10;;;;;;;22.70;3.40;;;6.30;99.90;;;;;;5085850;28;20583;-59
2024/01/01 04:08:40;;;;;;;17.73;3.17;;;6.30;99.90;;;;;;5085615;28;20320;-59
2024/01/01 04:11:09;;;;;;;17.53;3.20;;;6.30;99.90;;;;;;5085089;28;20196;-60
2024/01/01 04:13:38;;;;;;;15.97;3.17;;;6.30;99.90;;;;;;5088710;28;20670;-59
2024/01/01 04:16:08;;;;;;;22.33;3.40;;;6.30;99.90;;;;;;5089314;28;20761;-60
2024/01/01 04:18:36;;;;;;;25.83;3.63;;;6.30;99.90;;;;;;5087495;28;20220;-59
2024/01/01 04:21:05;;;;;;;19.73;3.33;;;6.30;99.90;;;;;;5089782;28;20573;-59
2024/01/01 04:23:33;;;;;;;23.70;2.93;;;6.30;99.90;;;;;;5083644;28;20227;-59
2024/01/01 04:26:03;;;;;;;15.47;3.33;;;6.30;99.90;;;;;;5086403;27;20199;-58
2024/01/01 04:28:31;;;;;;;10.77;2.60;;;6.20;99.90;;;;;;5083872;28;20204;-59
2024/01/01 04:31:00;;;;;;;16.10;3.50;;;6.20;99.90;;;;;;5086736;28;20306;-59
2024/01/01 04:33:28;;;;;;;21.80;3.50;;;6.20;99.90;;;;;;5084440;28;20231;-59
2024/01/01 04:35:57;;;;;;;26.87;3.43;;;6.30;99.90;;;;;;5084928;28;20223;-59
2024/01/01 04:38:25;;;;;;;11.90;2.90;;;6.20;99.90;;;;;;5085716;28;20964;-59
2024/01/01 04:40:53;;;;;;;17.37;2.97;;;6.30;99.90;;;;;;5084044;28;20219;-60
2024/01/01 04:43:24;;;;;;;17.13;2.83;;;6.20;99.90;;;;;;5085116;28;20258;-59
2024/01/01 04:45:52;;;;;;;13.43;3.03;;;6.20;99.90;;;;;;5085728;28;20215;-59
2024/01/01 04:48:22;;;;;;;13.13;3.00;;;6.20;99.90;;;;;;5082645;28;20220;-59
2024/01/01 04:50:50;;;;;;;15.63;2.90;;;6.20;99.90;;;;;;5082455;28;20294;-59
2024/01/01 04:53:18;;;;;;;11.27;3.10;;;6.20;99.90;;;;;;5083184;28;20234;-59
2024/01/01 04:55:47;;;;;;;18.33;3.07;;;6.20;99.90;;;;;;5086247;28;20199;-58
2024/01/01 04:58:15;;;;;;;13.47;2.97;;;6.20;99.90;;;;;;5084346;28;20301;-59
2024/01/01 05:00:45;;;;;;;23.73;2.80;;;6.20;99.90;;;;;;5087032;28;20612;-59
2024/01/01 05:03:14;;;;;;;17.93;3.10;;;6.20;99.90;;;;;;5082675;28;20409;-59
2024/01/01 05:05:42;;;;;;;21.07;4.07;;;6.20;99.90;;;;;;5084694;28;20246;-59
2024/01/01 05:08:11;;;;;;;15.83;3.23;;;6.20;99.90;;;;;;5087813;28;20406;-59
2024/01/01 05:10:40;;;;;;;11.80;2.90;;;6.20;99.90;;;;;;5088404;28;20191;-59
2024/01/01 05:13:09;;;;;;;14.87;3.00;;;6.20;99.90;;;;;;5086856;28;20654;-59
2024/01/01 05:15:38;;;;;;;18.57;3.60;;;6.20;99.90;;;;;;5085370;27;20731;-59
2024/01/01 05:18:07;;;;;;;14.90;3.23;;;6.20;99.90;;;;;;5084379;28;20220;-59
2024/01/01 05:20:36;;;;;;;20.03;3.13;;;6.20;99.90;;;;;;5087491;28;20234;-59
2024/01/01 05:23:05;;;;;;;13.13;3.33;;;6.20;99.90;;;;;;5086799;27;21423;-59
2024/01/01 05:25:33;;;;;;;10.10;3.20;;;6.30;99.90;;;;;;5087575;28;20226;-59
2024/01/01 05:28:02;;;;;;;14.97;3.10;;;6.30;99.90;;;;;;5087476;28;20682;-59
2024/01/01 05:30:31;;;;;;;18.60;3.50;;;6.30;99.90;;;;;;5083749;28;20223;-59
2024/01/01 05:32:59;;;;;;;15.83;3.53;;;6.30;99.90;;;;;;5083613;28;20224;-59
2024/01/01 05:35:29;;;;;;;18.73;3.50;;;6.30;99.90;;;;;;5083693;28;20224;-59
2024/01/01 05:37:57;;;;;;;32.87;4.10;;;6.30;99.90;;;;;;5087612;28;20188;-59
2024/01/01 05:40:25;;;;;;;20.90;3.60;;;6.30;99.90;;;;;;5086943;28;20231;-58
2024/01/01 05:42:53;;;;;;;16.03;3.20;;;6.30;99.90;;;;;;5083643;28;20215;-59
2024/01/01 05:45:22;;;;;;;22.77;3.80;;;6.30;99.90;;;;;;5082745;28;20302;-58
2024/01/01 05:47:50;;;;;;;18.93;3.50;;;6.30;99.90;;;;;;5084661;28;20254;-58
2024/01/01 05:50:23;;;;;;;19.20;3.63;;;6.30;99.90;;;;;;5086085;28;20246;-59
2024/01/01 05:52:53;;;;;;;21.83;3.67;;;6.30;99.90;;;;;;5082168;28;20238;-59
2024/01/01 05:55:21;;;;;;;13.57;3.67;;;6.30;99.90;;;;;;5086886;28;20215;-59
2024/01/01 05:57:50;;;;;;;17.53;3.27;;;6.30;99.90;;;;;;5082385;28;20573;-58
2024/01/01 06:00:20;;;;;;;13.60;3.57;;;6.30;99.90;;;;;;5083410;28;20219;-59
2024/01/01 06:02:48;;;;;;;20.13;3.70;;;6.30;99.90;;;;;;5081085;28;20239;-59
2024/01/01 06:05:16;;;;;;;17.07;3.40;;;6.30;99.90;;;;;;5082533;28;20210;-59
2024/01/01 06:07:44;;;;;;;21.57;4.13;;;6.30;99.90;;;;;;5085625;28;20273;-59
2024/01/01 06:10:14;;;;;;;15.63;3.43;;;6.30;99.90;;;;;;5084788;28;20208;-58
2024/01/01 06:12:42;;;;;;;15.13;3.53;;;6.30;99.90;;;;;;5087027;28;20227;-59
2024/01/01 06:15:12;;;;;;;21.90;4.27;;;6.40;99.90;;;;;;5084455;28;20216;-59
2024/01/01 06:17:41;;;;;;;17.50;4.03;;;6.40;99.90;;;;;;5088594;28;20231;-59
2024/01/01 06:20:10;;;;;;;15.50;3.77;;;6.40;99.90;;;;;;5085515;28;20191;-59
2024/01/01 06:22:38;;;;;;;17.23;4.60;;;6.40;99.90;;;;;;5082543;28;20195;-59
2024/01/01 06:25:08;;;;;;;14.60;4.37;;;6.30;99.90;;;;;;5085627;28;20288;-59
2024/01/01 06:27:38;;;;;;;31.07;6.23;;;6.40;99.90;;;;;;5087003;28;20716;-59
2024/01/01 06:30:07;;;;;;;19.20;4.73;;;6.40;99.90;;;;;;5087349;28;20215;-59
2024/01/01 06:32:36;;;;;;;13.67;4.37;;;6.40;99.90;;;;;;5085995;28;20253;-59
2024/01/01 06:35:05;;;;;;;21.20;3.60;;;6.40;99.90;;;;;;5088325;28;20231;-59
2024/01/01 06:37:33;;;;;;;20.33;3.87;;;6.40;99.90;;;;;;5085190;28;20291;-58
2024/01/01 06:40:03;;;;;;;14.93;3.13;;;6.40;99.90;;;;;;5081358;28;20229;-58
2024/01/01 06:42:31;;;;;;;14.63;3.53;;;6.40;99.90;;;;;;5082096;28;20350;-59
2024/01/01 06:45:06;;;;;;;18.97;3.40;;;6.50;99.90;;;;;;5082498;28;20231;-58
2024/01/01 06:47:35;;;;;;;15.73;3.20;;;6.50;99.90;;;;;;5083311;28;20227;-60
2024/01/01 06:50:03;;;;;;;17.43;3.13;;;6.50;99.90;;;;;;5080655;28;20303;-59
2024/01/01 06:52:32;;;;;;;18.70;3.10;;;6.50;99.90;;;;;;5082349;28;20298;-59
2024/01/01 06:55:01;;;;;;;19.93;3.20;;;6.50;99.90;;;;;;5086271;28;20222;-59
2024/01/01 06:57:29;;;;;;;19.23;4.17;;;6.50;99.90;;;;;;5085332;28;20280;-59
2024/01/01 06:59:57;;;;;;;15.83;3.50;;;6.50;99.90;;;;;;5084386;28;20223;-59
2024/01/01 07:02:27;;;;;;;11.23;3.60;;;6.50;99.90;;;;;;5083658;28;20239;-59
2024/01/01 07:04:55;;;;;;;13.90;3.17;;;6.50;99.90;;;;;;5082283;28;20215;-59
2024/01/01 07:07:24;;;;;;;25.40;3.10;;;6.50;99.90;;;;;;5081054;28;20289;-59
2024/01/01 07:09:52;;;;;;;18.03;3.20;;;6.50;99.90;;;;;;5080680;28;20225;-59
2024/01/01 07:12:23;;;;;;;23.07;3.53;;;6.50;99.90;;;;;;5085086;28;20203;-59
2024/01/01 07:14:51;;;;;;;16.47;3.20;;;6.50;99.90;;;;;;5080617;28;20227;-59
2024/01/01 07:17:20;;;;;;;15.23;3.43;;;6.50;99.90;;;;;;5088030;28;20203;-58
2024/01/01 07:19:51;;;;;;;29.97;3.77;;;6.50;99.90;;;;;;5088852;28;20223;-59
2024/01/01 07:22:19;;;;;;;15.03;3.27;;;6.50;99.90;;;;;;5084391;28;20243;-59
2024/01/01 07:24:47;;;;;;;14.40;3.17;;;6.50;99.90;;;;;;5083256;28;20216;-58
2024/01/01 07:27:16;;;;;;;17.13;4.27;;;6.50;99.90;;;;;;5079806;28;20216;-59
2024/01/01 07:29:44;;;;;;;21.20;3.63;;;6.50;99.90;;;;;;5081887;28;20223;-59
2024/01/01 07:32:12;;;;;;;25.10;5.83;;;6.50;99.90;;;;;;5084987;27;20296;-59
2024/01/01 07:34:41;;;;;;;17.93;3.87;;;6.50;99.90;;;;;;5088505;28;20506;-60
2024/01/01 07:37:11;;;;;;;23.67;4.30;;;6.50;99.90;;;;;;5088723;27;20227;-58
2024/01/01 07:39:40;;;;;;;19.57;3.70;;;6.50;99.90;;;;;;5088765;28;20238;-59
2024/01/01 07:42:08;;;;;;;10.67;3.33;;;6.50;99.90;;;;;;5082900;28;20222;-59
2024/01/01 07:44:37;;;;;;;17.80;3.60;;;6.50;99.90;;;;;;5086767;28;20569;-59
2024/01/01 07:47:05;;;;;;;18.80;4.07;;;6.60;99.90;;;;;;5085906;28;20653;-59
2024/01/01 07:49:33;;;;;;;18.97;3.47;;;6.60;99.90;;;;;;5087730;28;20195;-59
2024/01/01 07:52:02;;;;;;;16.57;3.77;;;6.60;99.90;;;;;;5085324;28;20305;-59
2024/01/01 07:54:31;;;;;;;15.27;3.30;;;6.60;99.90;;;;;;5082317;28;20249;-59
2024/01/01 07:57:00;;;;;;;16.10;3.60;;;6.60;99.90;;;;;;5087930;28;20223;-59
2024/01/01 07:59:28;;;;;;;13.63;3.10;;;6.60;99.90;;;;;;5086777;28;20532;-59
2024/01/01 08:01:57;;;;;;;13.67;3.00;;;6.60;99.90;;;;;;5088606;28;20633;-59
2024/01/01 08:04:26;;;;;;;15.00;3.13;;;6.70;99.90;;;;;;5086280;28;20235;-59
2024/01/01 08:06:54;;;;;;;27.07;3.50;;;6.70;99.90;;;;;;5084860;28;20219;-58
2024/01/01 08:09:22;;;;;;;25.93;4.10;;;6.70;99.90;;;;;;5086801;28;20225;-59
2024/01/01 08:11:52;;;;;;;19.77;3.50;;;6.70;99.90;;;;;;5082993;28;20215;-59
2024/01/01 08:14:20;;;;;;;16.03;3.50;;;6.70;99.90;;;;;;5084541;28;20233;-59
2024/01/01 08:16:48;;;;;;;22.03;4.00;;;6.70;99.90;;;;;;5083249;28;20272;-58
2024/01/01 08:19:17;;;;;;;14.60;2.97;;;6.70;99.90;;;;;;5082308;28;20319;-60
2024/01/01 08:21:45;;;;;;;21.23;4.03;;;6.70;99.90;;;;;;5083103;28;20215;-58
2024/01/01 08:24:13;;;;;;;20.23;3.47;;;6.70;99.90;;;;;;5086564;28;20215;-59
2024/01/01 08:26:41;;;;;;;14.43;3.30;;;6.70;99.90;;;;;;5088898;28;20219;-59
2024/01/01 08:29:12;;;;;;;21.63;3.57;;;6.80;99.90;;;;;;5086615;28;20193;-58
2024/01/01 08:31:40;;;;;;;12.90;3.33;;;6.80;99.90;;;;;;5086004;28;20344;-58
2024/01/01 08:34:08;;;;;;;12.60;3.40;;;6.80;99.90;;;;;;5087311;28;20595;-59
2024/01/01 08:36:36;;;;;;;24.00;3.07;;;6.80;99.90;;;;;;5088179;28;20306;-59
2024/01/01 08:39:05;;;;;;;14.40;3.27;;;6.80;99.90;;;;;;5087833;28;20715;-60
2024/01/01 08:41:33;;;;;;;13.33;3.10;;;6.80;99.90;;;;;;5083118;28;20231;-59
2024/01/01 08:44:03;;;;;;;14.73;3.33;;;6.80;99.90;;;;;;5087555;28;20566;-58
2024/01/01 08:46:33;;;;;;;16.10;2.93;;;6.80;99.90;;;;;;5084045;28;20562;-59
2024/01/01 08:49:01;;;;;;;25.37;3.20;;;6.80;99.90;;;;;;5082841;27;20230;-58
2024/01/01 08:51:29;;;;;;;23.27;3.90;;;6.80;99.90;;;;;;5085241;28;20289;-59
2024/01/01 08:53:57;;;;;;;18.93;3.53;;;6.90;99.90;;;;;;5090333;28;20223;-58
2024/01/01 08:56:26;;;;;;;20.50;3.80;;;6.90;99.90;;;;;;5084272;28;20593;-58
2024/01/01 08:58:54;;;;;;;28.40;4.33;;;6.90;99.90;;;;;;5086895;28;20214;-58
2024/01/01 09:01:22;;;;;;;21.73;3.83;;;6.90;99.90;;;;;;5082681;28;20282;-59
2024/01/01 09:03:52;;;;;;;17.97;3.23;;;6.90;99.90;;;;;;5079234;28;20231;-59
2024/01/01 09:06:21;;;;;;;16.60;2.77;;;6.90;99.90;;;;;;5083386;28;20215;-59
2024/01/01 09:08:49;;;;;;;27.67;3.77;;;7.00;99.90;;;;;;5084979;28;20219;-59
2024/01/01 09:11:17;;;;;;;22.13;3.57;;;7.00;99.90;;;;;;5086278;28;20194;-59
2024/01/01 09:13:45;;;;;;;21.53;3.27;;;7.00;99.90;;;;;;5085975;28;20191;-59
2024/01/01 09:16:14;;;;;;;14.40;3.80;;;7.00;99.90;;;;;;5084477;28;20215;-59
2024/01/01 09:18:42;;;;;;;18.73;3.43;;;7.00;99.90;;;;;;5083434;28;20288;-59
2024/01/01 09:21:16;;;;;;;29.90;4.00;;;6.90;99.90;;;;;;5086462;28;20306;-59
2024/01/01 09:23:44;;;;;;;26.07;4.03;;;7.00;99.90;;;;;;5082991;28;20226;-59
2024/01/01 09:26:14;;;;;;;17.10;3.77;;;7.00;99.90;;;;;;5088738;28;20642;-59
2024/01/01 09:28:43;;;;;;;18.43;3.53;;;7.00;99.90;;;;;;5087206;28;20196;-59
2024/01/01 09:31:11;;;;;;;27.43;3.60;;;7.00;99.90;;;;;;5083932;28;20798;-59
2024/01/01 09:33:39;;;;;;;30.27;3.40;;;7.00;99.90;;;;;;5083951;28;20232;-59
2024/01/01 09:36:08;;;;;;;20.23;3.40;;;7.10;99.90;;;;;;5079853;28;20272;-59
2024/01/01 09:38:38;;;;;;;16.00;3.40;;;7.10;99.90;;;;;;5086635;28;20768;-59
2024/01/01 09:41:10;;;;;;;21.23;4.07;;;7.10;99.90;;;;;;5084375;28;20322;-58
2024/01/01 09:43:39;;;;;;;19.70;3.80;;;7.10;99.90;;;;;;5084717;28;20192;-59
2024/01/01 09:46:08;;;;;;;21.03;3.70;;;7.10;99.90;;;;;;5083940;28;20270;-59
2024/01/01 09:48:37;;;;;;;25.00;3.60;;;7.10;99.90;;;;;;5079202;28;20211;-59
2024/01/01 09:51:06;;;;;;;20.00;3.70;;;7.10;99.90;;;;;;5081059;28;20327;-59
2024/01/01 09:53:34;;;;;;;23.30;3.57;;;7.10;99.90;;;;;;5081654;28;20219;-59
2024/01/01 09:56:04;;;;;;;23.30;3.40;;;7.20;99.90;;;;;;5086824;28;20214;-58
2024/01/01 09:58:41;;;;;;;25.40;3.73;;;7.20;99.90;;;;;;5084157;28;20282;-59
2024/01/01 10:01:11;;;;;;;26.40;4.30;;;7.20;99.90;;;;;;5085570;28;20246;-59
2024/01/01 10:03:40;;;;;;;19.20;3.70;;;7.30;99.90;;;;;;5080553;28;20222;-58
2024/01/01 10:06:09;;;;;;;24.77;4.37;;;7.40;99.90;;;;;;5082950;28;20223;-59
2024/01/01 10:08:38;;;;;;;16.13;3.83;;;7.40;99.90;;;;;;5083462;27;20247;-59
2024/01/01 10:11:19;;;;;;;21.83;3.87;;;7.50;99.90;;;;;;5082539;28;20274;-58
2024/01/01 10:13:47;;;;;;;19.50;3.90;;;7.60;99.90;;;;;;5080731;28;20680;-59
2024/01/01 10:16:25;;;;;;;20.47;3.97;;;7.80;99.90;;;;;;5084592;28;20219;-59
2024/01/01 10:18:56;;;;;;;21.13;3.80;;;7.90;99.90;;;;;;5084344;28;20211;-59
2024/01/01 10:21:29;;;;;;;24.03;4.87;;;8.10;99.90;;;;;;5082631;28;20223;-59
2024/01/01 10:23:58;;;;;;;15.47;3.50;;;8.40;99.90;;;;;;5086038;28;20214;-59
2024/01/01 10:26:39;;;;;;;26.00;4.03;;;8.60;99.90;;;;;;5082736;28;20225;-59
2024/01/01 10:29:12;;;;;;;15.90;4.23;;;8.70;99.90;;;;;;5082524;28;20194;-58
2024/01/01 10:31:45;;;;;;;26.57;4.07;;;8.90;99.90;;;;;;5086423;28;20215;-59
2024/01/01 10:34:17;;;;;;;21.83;4.77;;;9.10;99.90;;;;;;5082660;28;20215;-59
2024/01/01 10:36:46;;;;;;;17.10;4.83;;;9.20;99.90;;;;;;5082441;28;20713;-59
2024/01/01 10:39:15;;;;;;;25.27;4.87;;;9.20;99.90;;;;;;5084318;28;20211;-59
2024/01/01 10:41:47;;;;;;;25.73;4.60;;;9.30;99.90;;;;;;5082763;28;20224;-60
2024/01/01 10:44:16;;;;;;;19.40;4.40;;;9.30;99.90;;;;;;5083095;28;20183;-58
2024/01/01 10:46:46;;;;;;;16.13;4.30;;;9.40;99.90;;;;;;5081501;28;20665;-59
2024/01/01 10:49:22;;;;;;;28.80;4.80;;;9.40;99.90;;;;;;5088005;28;20223;-59
2024/01/01 10:52:03;;;;;;;21.90;4.30;;;9.40;99.90;;;;;;5079382;27;20241;-59
2024/01/01 10:55:11;;;;;;;27.00;4.47;;;9.50;99.90;;;;;;5077962;28;20312;-60
2024/01/01 10:58:08;;;;;;;13.53;3.73;;;9.50;99.90;;;;;;5074352;28;20233;-59
2024/01/01 11:00:41;;;;;;;16.73;4.40;;;9.50;99.90;;;;;;5083114;28;20226;-59
2024/01/01 11:03:14;;;;;;;21.13;4.00;;;9.40;99.90;;;;;;5084757;28;20620;-59
2024/01/01 11:05:44;;;;;;;27.27;5.47;;;9.30;99.90;;;;;;5081200;28;20207;-59
2024/01/01 11:08:13;;;;;;;22.50;4.30;;;9.40;99.90;;;;;;5083706;28;20275;-59
2024/01/01 11:10:43;;;;;;;23.20;4.80;;;9.30;99.90;;;;;;5083627;28;20237;-59
2024/01/01 11:13:54;;;;;;;19.57;5.53;;;9.40;99.90;;;;;;5086325;28;20223;-59
2024/01/01 11:16:23;;;;;;;21.07;5.07;;;9.50;99.90;;;;;;5087669;28;20211;-59
2024/01/01 11:18:53;;;;;;;27.30;4.90;;;9.50;99.90;;;;;;5088508;28;20247;-59
2024/01/01 11:21:29;;;;;;;17.37;4.90;;;9.50;99.90;;;;;;5081709;28;20227;-59
2024/01/01 11:24:01;;;;;;;18.70;4.77;;;9.50;99.90;;;;;;5087881;28;20215;-58
2024/01/01 11:26:34;;;;;;;23.63;4.87;;;9.50;99.90;;;;;;5084494;28;20227;-59
2024/01/01 11:29:06;;;;;;;16.23;4.60;;;9.40;99.90;;;;;;5084125;28;20275;-58
2024/01/01 11:31:35;;;;;;;21.17;5.20;;;9.30;99.90;;;;;;5087022;28;20192;-59
2024/01/01 11:34:06;;;;;;;13.57;4.50;;;9.30;99.90;;;;;;5087103;28;20389;-59
2024/01/01 11:36:49;;;;;;;22.07;4.30;;;9.20;99.90;;;;;;5090320;28;20242;-59
2024/01/01 11:39:21;;;;;;;20.17;5.33;;;9.10;99.90;;;;;;5087369;28;20618;-59
2024/01/01 11:41:50;;;;;;;20.47;4.63;;;9.10;99.90;;;;;;5085234;28;20719;-59
2024/01/01 11:44:23;;;;;;;17.63;4.37;;;9.00;99.90;;;;;;5086271;28;20748;-60
2024/01/01 11:46:55;;;;;;;18.77;4.57;;;8.90;99.90;;;;;;5089225;28;20211;-59
2024/01/01 11:49:24;;;;;;;14.57;4.37;;;8.90;99.90;;;;;;5087233;28;20530;-59
2024/01/01 11:51:54;;;;;;;17.43;4.97;;;8.80;99.90;;;;;;5081559;27;20231;-59
2024/01/01 11:54:25;;;;;;;21.97;5.43;;;8.90;99.90;;;;;;5088112;28;20217;-59
2024/01/01 11:56:56;;;;;;;22.03;5.43;;;9.00;99.90;;;;;;5080505;28;20247;-59
2024/01/01 11:59:30;;;;;;;20.63;4.90;;;9.00;99.90;;;;;;5085701;28;20258;-59
2024/01/01 12:01:59;;;;;;;18.67;5.10;;;9.10;99.90;;;;;;5088284;28;20531;-59
2024/01/01 12:04:27;;;;;;;24.37;5.83;;;9.00;99.90;;;;;;5084082;28;20326;-59
2024/01/01 12:06:56;;;;;;;15.93;4.77;;;8.90;99.90;;;;;;5083936;28;20685;-59
2024/01/01 12:09:25;;;;;;;20.97;5.00;;;8.90;99.90;;;;;;5086398;28;20220;-59
2024/01/01 12:12:03;;;;;;;13.70;5.33;;;8.90;99.90;;;;;;5085570;28;20645;-59
2024/01/01 12:14:32;;;;;;;18.97;4.60;;;9.00;99.90;;;;;;5083761;28;20320;-59
2024/01/01 12:17:01;;;;;;;24.83;5.27;;;9.00;99.90;;;;;;5085128;28;20805;-56
2024/01/01 12:19:31;;;;;;;22.80;4.20;;;9.00;99.90;;;;;;5080791;28;20284;-60
2024/01/01 12:21:59;;;;;;;16.53;4.50;;;9.00;99.90;;;;;;5083369;28;20264;-59
2024/01/01 12:24:29;;;;;;;18.03;4.57;;;8.90;99.90;;;;;;5081147;28;20707;-59
2024/01/01 12:27:02;;;;;;;22.17;4.10;;;8.90;99.90;;;;;;5091694;28;20754;-59
2024/01/01 12:29:32;;;;;;;25.53;4.67;;;8.90;99.90;;;;;;5083781;28;20219;-59
2024/01/01 12:32:01;;;;;;;20.67;4.50;;;8.80;99.90;;;;;;5083044;28;20280;-57
2024/01/01 12:34:29;;;;;;;23.07;4.43;;;8.80;99.90;;;;;;5086172;28;20198;-59
2024/01/01 12:36:59;;;;;;;15.47;4.47;;;8.80;99.90;;;;;;5084240;28;20215;-60
2024/01/01 12:39:28;;;;;;;20.30;3.80;;;8.90;99.90;;;;;;5083234;27;20227;-59
2024/01/01 12:41:56;;;;;;;19.57;4.10;;;8.90;99.90;;;;;;5082487;28;20551;-60
2024/01/01 12:44:24;;;;;;;22.17;4.20;;;8.90;99.90;;;;;;5085729;28;20223;-59
2024/01/01 12:46:54;;;;;;;22.53;4.13;;;8.90;99.90;;;;;;5077126;28;20278;-59
2024/01/01 12:49:22;;;;;;;24.50;4.37;;;8.90;99.90;;;;;;5079492;28;20246;-59
2024/01/01 12:51:51;;;;;;;18.13;3.40;;;8.90;99.90;;;;;;5077868;28;20234;-59
2024/01/01 12:54:19;;;;;;;13.23;3.40;;;8.90;99.90;;;;;;5083197;28;21061;-60
2024/01/01 12:56:47;;;;;;;14.53;2.90;;;8.90;99.90;;;;;;5084938;28;20318;-59
2024/01/01 12:59:15;;;;;;;13.20;3.87;;;8.90;99.90;;;;;;5083582;28;20195;-60